sensor_id;sensor_type;location;lat;lon;timestamp;pressure;altitude;pressure_sealevel;temperature;humidity
46211;BME280;52144;48.040;-1.594;2022-11-20T00:00:53;100974.81;;;10.06;90.84
46211;BME280;52144;48.040;-1.594;2022-11-20T00:03:20;100977.91;;;10.17;89.90
46211;BME280;52144;48.040;-1.594;2022-11-20T00:05:48;100975.69;;;10.30;90.57
46211;BME280;52144;48.040;-1.594;2022-11-20T00:08:18;100972.28;;;10.25;89.81
46211;BME280;52144;48.040;-1.594;2022-11-20T00:10:45;100970.44;;;10.27;90.78
46211;BME280;52144;48.040;-1.594;2022-11-20T00:13:13;100977.69;;;10.46;89.18
46211;BME280;52144;48.040;-1.594;2022-11-20T00:15:41;100966.69;;;10.33;90.04
46211;BME280;52144;48.040;-1.594;2022-11-20T00:18:09;100969.03;;;10.40;89.65
46211;BME280;52144;48.040;-1.594;2022-11-20T00:20:36;100968.38;;;10.56;89.39
46211;BME280;52144;48.040;-1.594;2022-11-20T00:23:04;100975.19;;;10.42;89.34
46211;BME280;52144;48.040;-1.594;2022-11-20T00:25:34;100967.41;;;10.58;89.55
46211;BME280;52144;48.040;-1.594;2022-11-20T00:28:03;100969.19;;;10.58;89.78
46211;BME280;52144;48.040;-1.594;2022-11-20T00:30:31;100960.97;;;10.42;90.32
46211;BME280;52144;48.040;-1.594;2022-11-20T00:32:58;100961.88;;;10.63;90.93
46211;BME280;52144;48.040;-1.594;2022-11-20T00:35:26;100964.81;;;10.57;90.23
46211;BME280;52144;48.040;-1.594;2022-11-20T00:37:54;100974.63;;;10.56;90.54
46211;BME280;52144;48.040;-1.594;2022-11-20T00:40:22;100972.16;;;10.72;89.69
46211;BME280;52144;48.040;-1.594;2022-11-20T00:42:51;100965.34;;;10.65;89.73
46211;BME280;52144;48.040;-1.594;2022-11-20T00:45:19;100968.75;;;10.69;88.78
46211;BME280;52144;48.040;-1.594;2022-11-20T00:47:46;100960.81;;;10.67;89.97
46211;BME280;52144;48.040;-1.594;2022-11-20T00:50:14;100964.31;;;10.90;89.32
46211;BME280;52144;48.040;-1.594;2022-11-20T00:52:42;100964.69;;;11.01;89.21
46211;BME280;52144;48.040;-1.594;2022-11-20T00:55:10;100960.94;;;11.05;88.83
46211;BME280;52144;48.040;-1.594;2022-11-20T00:57:38;100955.09;;;11.17;88.88
46211;BME280;52144;48.040;-1.594;2022-11-20T01:00:08;100951.88;;;11.09;88.05
46211;BME280;52144;48.040;-1.594;2022-11-20T01:02:36;100953.56;;;11.12;88.39
46211;BME280;52144;48.040;-1.594;2022-11-20T01:05:04;100945.75;;;11.07;89.31
46211;BME280;52144;48.040;-1.594;2022-11-20T01:07:32;100954.53;;;11.09;89.51
46211;BME280;52144;48.040;-1.594;2022-11-20T01:09:59;100943.75;;;11.12;90.66
46211;BME280;52144;48.040;-1.594;2022-11-20T01:12:27;100949.88;;;11.14;89.79
46211;BME280;52144;48.040;-1.594;2022-11-20T01:14:55;100946.53;;;11.09;90.44
46211;BME280;52144;48.040;-1.594;2022-11-20T01:17:24;100934.97;;;11.10;91.04
46211;BME280;52144;48.040;-1.594;2022-11-20T01:19:52;100943.28;;;11.02;91.48
46211;BME280;52144;48.040;-1.594;2022-11-20T01:22:20;100934.47;;;11.21;92.08
46211;BME280;52144;48.040;-1.594;2022-11-20T01:24:48;100935.56;;;10.96;93.13
46211;BME280;52144;48.040;-1.594;2022-11-20T01:27:15;100934.81;;;11.13;92.54
46211;BME280;52144;48.040;-1.594;2022-11-20T01:29:43;100931.50;;;10.88;94.33
46211;BME280;52144;48.040;-1.594;2022-11-20T01:32:11;100923.34;;;11.11;93.83
46211;BME280;52144;48.040;-1.594;2022-11-20T01:34:40;100927.28;;;11.02;93.19
46211;BME280;52144;48.040;-1.594;2022-11-20T01:37:08;100919.09;;;10.87;94.06
46211;BME280;52144;48.040;-1.594;2022-11-20T01:39:35;100914.16;;;11.18;94.34
46211;BME280;52144;48.040;-1.594;2022-11-20T01:42:03;100910.28;;;11.26;94.74
46211;BME280;52144;48.040;-1.594;2022-11-20T01:44:53;100902.78;;;10.94;96.09
46211;BME280;52144;48.040;-1.594;2022-11-20T01:47:25;100905.56;;;11.12;96.03
46211;BME280;52144;48.040;-1.594;2022-11-20T01:49:59;100887.75;;;11.12;96.05
46211;BME280;52144;48.040;-1.594;2022-11-20T01:52:32;100882.94;;;11.20;96.24
46211;BME280;52144;48.040;-1.594;2022-11-20T01:55:04;100892.41;;;11.07;97.11
46211;BME280;52144;48.040;-1.594;2022-11-20T01:57:35;100888.69;;;11.11;96.83
46211;BME280;52144;48.040;-1.594;2022-11-20T02:00:06;100889.34;;;11.16;96.79
46211;BME280;52144;48.040;-1.594;2022-11-20T02:02:35;100894.63;;;11.18;97.59
46211;BME280;52144;48.040;-1.594;2022-11-20T02:05:11;100885.75;;;11.17;97.13
46211;BME280;52144;48.040;-1.594;2022-11-20T02:07:43;100884.88;;;11.17;97.74
46211;BME280;52144;48.040;-1.594;2022-11-20T02:10:11;100880.84;;;11.27;97.54
46211;BME280;52144;48.040;-1.594;2022-11-20T02:12:39;100873.13;;;11.21;97.29
46211;BME280;52144;48.040;-1.594;2022-11-20T02:15:24;100867.44;;;11.29;98.08
46211;BME280;52144;48.040;-1.594;2022-11-20T02:17:56;100871.19;;;11.24;97.69
46211;BME280;52144;48.040;-1.594;2022-11-20T02:20:25;100862.31;;;11.24;97.48
46211;BME280;52144;48.040;-1.594;2022-11-20T02:22:56;100858.66;;;11.27;98.13
46211;BME280;52144;48.040;-1.594;2022-11-20T02:25:27;100853.97;;;11.32;97.56
46211;BME280;52144;48.040;-1.594;2022-11-20T02:27:55;100851.38;;;11.30;96.85
46211;BME280;52144;48.040;-1.594;2022-11-20T02:30:23;100842.28;;;11.34;96.71
46211;BME280;52144;48.040;-1.594;2022-11-20T02:32:51;100837.25;;;11.28;96.41
46211;BME280;52144;48.040;-1.594;2022-11-20T02:35:43;100833.06;;;11.22;97.88
46211;BME280;52144;48.040;-1.594;2022-11-20T02:38:12;100834.41;;;11.31;97.55
46211;BME280;52144;48.040;-1.594;2022-11-20T02:40:42;100828.38;;;11.28;97.22
46211;BME280;52144;48.040;-1.594;2022-11-20T02:43:10;100817.03;;;11.22;97.08
46211;BME280;52144;48.040;-1.594;2022-11-20T02:45:38;100822.38;;;11.22;97.45
46211;BME280;52144;48.040;-1.594;2022-11-20T02:48:06;100815.97;;;11.27;98.95
46211;BME280;52144;48.040;-1.594;2022-11-20T02:50:37;100819.88;;;11.38;98.26
46211;BME280;52144;48.040;-1.594;2022-11-20T02:53:05;100813.56;;;11.39;98.72
46211;BME280;52144;48.040;-1.594;2022-11-20T02:55:33;100801.84;;;11.24;99.90
46211;BME280;52144;48.040;-1.594;2022-11-20T02:58:02;100800.81;;;11.27;99.72
46211;BME280;52144;48.040;-1.594;2022-11-20T03:00:30;100801.53;;;11.31;100.00
46211;BME280;52144;48.040;-1.594;2022-11-20T03:02:58;100794.69;;;11.25;99.34
46211;BME280;52144;48.040;-1.594;2022-11-20T03:05:26;100787.84;;;11.38;99.28
46211;BME280;52144;48.040;-1.594;2022-11-20T03:07:53;100782.44;;;11.40;98.66
46211;BME280;52144;48.040;-1.594;2022-11-20T03:10:21;100779.91;;;11.37;100.00
46211;BME280;52144;48.040;-1.594;2022-11-20T03:12:52;100763.16;;;11.52;99.62
46211;BME280;52144;48.040;-1.594;2022-11-20T03:15:22;100763.00;;;11.55;99.89
46211;BME280;52144;48.040;-1.594;2022-11-20T03:17:53;100756.25;;;11.48;99.13
46211;BME280;52144;48.040;-1.594;2022-11-20T03:20:21;100750.63;;;11.54;99.26
46211;BME280;52144;48.040;-1.594;2022-11-20T03:22:48;100754.88;;;11.39;100.00
46211;BME280;52144;48.040;-1.594;2022-11-20T03:25:16;100746.66;;;11.44;100.00
46211;BME280;52144;48.040;-1.594;2022-11-20T03:27:44;100741.78;;;11.35;100.00
46211;BME280;52144;48.040;-1.594;2022-11-20T03:30:13;100725.69;;;11.36;100.00
46211;BME280;52144;48.040;-1.594;2022-11-20T03:32:42;100718.22;;;11.26;100.00
46211;BME280;52144;48.040;-1.594;2022-11-20T03:35:10;100719.50;;;11.36;100.00
46211;BME280;52144;48.040;-1.594;2022-11-20T03:37:38;100723.66;;;11.41;100.00
46211;BME280;52144;48.040;-1.594;2022-11-20T03:40:06;100693.56;;;11.20;100.00
46211;BME280;52144;48.040;-1.594;2022-11-20T03:42:34;100700.44;;;11.43;100.00
46211;BME280;52144;48.040;-1.594;2022-11-20T03:45:15;100695.97;;;11.44;100.00
46211;BME280;52144;48.040;-1.594;2022-11-20T03:47:45;100696.59;;;11.32;100.00
46211;BME280;52144;48.040;-1.594;2022-11-20T03:50:14;100685.91;;;11.32;100.00
46211;BME280;52144;48.040;-1.594;2022-11-20T03:52:42;100681.88;;;11.23;100.00
46211;BME280;52144;48.040;-1.594;2022-11-20T03:55:10;100688.41;;;11.17;100.00
46211;BME280;52144;48.040;-1.594;2022-11-20T03:57:37;100685.44;;;11.23;100.00
46211;BME280;52144;48.040;-1.594;2022-11-20T04:00:06;100680.09;;;11.23;100.00
46211;BME280;52144;48.040;-1.594;2022-11-20T04:02:34;100669.91;;;11.32;100.00
46211;BME280;52144;48.040;-1.594;2022-11-20T04:05:03;100661.25;;;11.27;100.00
46211;BME280;52144;48.040;-1.594;2022-11-20T04:07:33;100660.94;;;11.33;100.00
46211;BME280;52144;48.040;-1.594;2022-11-20T04:10:02;100670.88;;;11.48;100.00
46211;BME280;52144;48.040;-1.594;2022-11-20T04:12:31;100658.81;;;11.22;100.00
46211;BME280;52144;48.040;-1.594;2022-11-20T04:14:59;100652.50;;;11.42;100.00
46211;BME280;52144;48.040;-1.594;2022-11-20T04:17:27;100667.56;;;11.43;100.00
46211;BME280;52144;48.040;-1.594;2022-11-20T04:19:55;100660.41;;;11.43;100.00
46211;BME280;52144;48.040;-1.594;2022-11-20T04:22:24;100658.53;;;11.45;100.00
46211;BME280;52144;48.040;-1.594;2022-11-20T04:24:52;100665.28;;;11.53;100.00
46211;BME280;52144;48.040;-1.594;2022-11-20T04:27:20;100666.88;;;11.57;100.00
46211;BME280;52144;48.040;-1.594;2022-11-20T04:29:48;100665.69;;;11.62;100.00
46211;BME280;52144;48.040;-1.594;2022-11-20T04:32:16;100663.56;;;11.69;100.00
46211;BME280;52144;48.040;-1.594;2022-11-20T04:34:44;100666.06;;;11.72;100.00
46211;BME280;52144;48.040;-1.594;2022-11-20T04:37:11;100659.31;;;11.65;100.00
46211;BME280;52144;48.040;-1.594;2022-11-20T04:39:40;100660.88;;;11.52;100.00
46211;BME280;52144;48.040;-1.594;2022-11-20T04:42:09;100663.84;;;11.45;100.00
46211;BME280;52144;48.040;-1.594;2022-11-20T04:44:56;100657.06;;;11.40;100.00
46211;BME280;52144;48.040;-1.594;2022-11-20T04:47:24;100657.53;;;11.48;100.00
46211;BME280;52144;48.040;-1.594;2022-11-20T04:49:52;100650.50;;;11.45;100.00
46211;BME280;52144;48.040;-1.594;2022-11-20T04:52:20;100651.72;;;11.40;100.00
46211;BME280;52144;48.040;-1.594;2022-11-20T04:54:49;100635.84;;;11.37;100.00
46211;BME280;52144;48.040;-1.594;2022-11-20T04:57:19;100632.78;;;11.44;100.00
46211;BME280;52144;48.040;-1.594;2022-11-20T04:59:47;100623.31;;;11.56;100.00
46211;BME280;52144;48.040;-1.594;2022-11-20T05:02:15;100613.56;;;11.55;100.00
46211;BME280;52144;48.040;-1.594;2022-11-20T05:04:42;100608.47;;;11.51;100.00
46211;BME280;52144;48.040;-1.594;2022-11-20T05:07:10;100613.09;;;11.64;100.00
46211;BME280;52144;48.040;-1.594;2022-11-20T05:09:38;100616.22;;;11.73;100.00
46211;BME280;52144;48.040;-1.594;2022-11-20T05:12:08;100602.72;;;11.76;100.00
46211;BME280;52144;48.040;-1.594;2022-11-20T05:14:36;100600.22;;;11.73;100.00
46211;BME280;52144;48.040;-1.594;2022-11-20T05:17:04;100593.44;;;11.83;100.00
46211;BME280;52144;48.040;-1.594;2022-11-20T05:19:32;100591.72;;;11.82;100.00
46211;BME280;52144;48.040;-1.594;2022-11-20T05:21:59;100599.28;;;11.91;100.00
46211;BME280;52144;48.040;-1.594;2022-11-20T05:24:27;100591.00;;;11.78;100.00
46211;BME280;52144;48.040;-1.594;2022-11-20T05:26:55;100594.00;;;11.72;100.00
46211;BME280;52144;48.040;-1.594;2022-11-20T05:29:24;100601.94;;;11.74;100.00
46211;BME280;52144;48.040;-1.594;2022-11-20T05:31:52;100586.63;;;11.77;100.00
46211;BME280;52144;48.040;-1.594;2022-11-20T05:34:19;100589.81;;;11.84;100.00
46211;BME280;52144;48.040;-1.594;2022-11-20T05:36:47;100585.19;;;11.88;100.00
46211;BME280;52144;48.040;-1.594;2022-11-20T05:39:15;100572.41;;;11.94;100.00
46211;BME280;52144;48.040;-1.594;2022-11-20T05:41:43;100572.94;;;12.01;100.00
46211;BME280;52144;48.040;-1.594;2022-11-20T05:44:11;100569.72;;;11.94;100.00
46211;BME280;52144;48.040;-1.594;2022-11-20T05:46:40;100569.84;;;12.09;100.00
46211;BME280;52144;48.040;-1.594;2022-11-20T05:49:08;100562.25;;;12.01;100.00
46211;BME280;52144;48.040;-1.594;2022-11-20T05:51:35;100558.81;;;11.99;100.00
46211;BME280;52144;48.040;-1.594;2022-11-20T05:54:03;100559.78;;;12.14;100.00
46211;BME280;52144;48.040;-1.594;2022-11-20T05:56:31;100556.25;;;12.13;100.00
46211;BME280;52144;48.040;-1.594;2022-11-20T05:58:59;100543.84;;;12.28;100.00
46211;BME280;52144;48.040;-1.594;2022-11-20T06:01:27;100540.38;;;12.10;100.00
46211;BME280;52144;48.040;-1.594;2022-11-20T06:03:56;100555.13;;;12.17;100.00
46211;BME280;52144;48.040;-1.594;2022-11-20T06:06:23;100559.25;;;12.07;100.00
46211;BME280;52144;48.040;-1.594;2022-11-20T06:08:52;100569.13;;;11.89;100.00
46211;BME280;52144;48.040;-1.594;2022-11-20T06:11:20;100572.09;;;11.83;100.00
46211;BME280;52144;48.040;-1.594;2022-11-20T06:13:48;100583.25;;;11.91;100.00
46211;BME280;52144;48.040;-1.594;2022-11-20T06:16:18;100588.72;;;11.88;100.00
46211;BME280;52144;48.040;-1.594;2022-11-20T06:18:47;100598.72;;;11.67;100.00
46211;BME280;52144;48.040;-1.594;2022-11-20T06:21:18;100684.06;;;11.69;100.00
46211;BME280;52144;48.040;-1.594;2022-11-20T06:23:47;100702.75;;;11.69;100.00
46211;BME280;52144;48.040;-1.594;2022-11-20T06:26:18;100689.69;;;11.80;100.00
46211;BME280;52144;48.040;-1.594;2022-11-20T06:28:47;100695.22;;;11.94;100.00
46211;BME280;52144;48.040;-1.594;2022-11-20T06:31:16;100695.59;;;12.21;100.00
46211;BME280;52144;48.040;-1.594;2022-11-20T06:33:45;100687.03;;;12.15;100.00
46211;BME280;52144;48.040;-1.594;2022-11-20T06:36:16;100695.59;;;12.21;100.00
46211;BME280;52144;48.040;-1.594;2022-11-20T06:38:44;100706.22;;;12.39;100.00
46211;BME280;52144;48.040;-1.594;2022-11-20T06:41:14;100729.56;;;12.53;100.00
46211;BME280;52144;48.040;-1.594;2022-11-20T06:43:42;100735.47;;;12.42;100.00
46211;BME280;52144;48.040;-1.594;2022-11-20T06:46:11;100725.31;;;12.49;100.00
46211;BME280;52144;48.040;-1.594;2022-11-20T06:48:39;100697.00;;;12.62;100.00
46211;BME280;52144;48.040;-1.594;2022-11-20T06:51:07;100679.84;;;12.66;100.00
46211;BME280;52144;48.040;-1.594;2022-11-20T06:53:37;100661.13;;;12.66;100.00
46211;BME280;52144;48.040;-1.594;2022-11-20T06:56:06;100650.50;;;12.49;100.00
46211;BME280;52144;48.040;-1.594;2022-11-20T06:58:35;100651.59;;;12.44;100.00
46211;BME280;52144;48.040;-1.594;2022-11-20T07:01:05;100656.22;;;12.25;100.00
46211;BME280;52144;48.040;-1.594;2022-11-20T07:03:33;100667.16;;;12.20;100.00
46211;BME280;52144;48.040;-1.594;2022-11-20T07:06:02;100683.25;;;12.19;100.00
46211;BME280;52144;48.040;-1.594;2022-11-20T07:08:30;100678.34;;;12.27;100.00
46211;BME280;52144;48.040;-1.594;2022-11-20T07:11:01;100660.44;;;12.29;100.00
46211;BME280;52144;48.040;-1.594;2022-11-20T07:13:29;100663.56;;;12.37;100.00
46211;BME280;52144;48.040;-1.594;2022-11-20T07:15:59;100667.63;;;12.44;100.00
46211;BME280;52144;48.040;-1.594;2022-11-20T07:18:27;100668.31;;;12.32;100.00
46211;BME280;52144;48.040;-1.594;2022-11-20T07:20:55;100653.31;;;12.30;100.00
46211;BME280;52144;48.040;-1.594;2022-11-20T07:23:22;100648.31;;;12.39;100.00
46211;BME280;52144;48.040;-1.594;2022-11-20T07:25:50;100659.28;;;12.51;100.00
46211;BME280;52144;48.040;-1.594;2022-11-20T07:28:19;100665.25;;;12.56;100.00
46211;BME280;52144;48.040;-1.594;2022-11-20T07:30:50;100661.94;;;12.51;100.00
46211;BME280;52144;48.040;-1.594;2022-11-20T07:33:17;100665.25;;;12.56;100.00
46211;BME280;52144;48.040;-1.594;2022-11-20T07:35:45;100657.81;;;12.61;100.00
46211;BME280;52144;48.040;-1.594;2022-11-20T07:38:13;100666.25;;;12.53;100.00
46211;BME280;52144;48.040;-1.594;2022-11-20T07:40:41;100664.00;;;12.45;100.00
46211;BME280;52144;48.040;-1.594;2022-11-20T07:43:09;100663.22;;;12.28;100.00
46211;BME280;52144;48.040;-1.594;2022-11-20T07:45:38;100641.78;;;12.12;100.00
46211;BME280;52144;48.040;-1.594;2022-11-20T07:48:06;100647.13;;;12.12;100.00
46211;BME280;52144;48.040;-1.594;2022-11-20T07:50:34;100670.22;;;12.13;100.00
46211;BME280;52144;48.040;-1.594;2022-11-20T07:53:02;100662.06;;;12.16;100.00
46211;BME280;52144;48.040;-1.594;2022-11-20T07:55:31;100668.63;;;12.26;100.00
46211;BME280;52144;48.040;-1.594;2022-11-20T07:57:59;100677.88;;;12.36;100.00
46211;BME280;52144;48.040;-1.594;2022-11-20T08:00:27;100683.03;;;12.39;100.00
46211;BME280;52144;48.040;-1.594;2022-11-20T08:02:56;100681.25;;;12.40;100.00
46211;BME280;52144;48.040;-1.594;2022-11-20T08:05:23;100688.22;;;12.42;100.00
46211;BME280;52144;48.040;-1.594;2022-11-20T08:07:51;100695.44;;;12.58;100.00
46211;BME280;52144;48.040;-1.594;2022-11-20T08:10:19;100703.91;;;12.66;100.00
46211;BME280;52144;48.040;-1.594;2022-11-20T08:12:48;100693.31;;;12.80;100.00
46211;BME280;52144;48.040;-1.594;2022-11-20T08:15:34;100698.53;;;12.82;100.00
46211;BME280;52144;48.040;-1.594;2022-11-20T08:18:05;100694.59;;;12.89;100.00
46211;BME280;52144;48.040;-1.594;2022-11-20T08:20:53;100704.78;;;12.82;100.00
46211;BME280;52144;48.040;-1.594;2022-11-20T08:23:22;100717.25;;;12.66;100.00
46211;BME280;52144;48.040;-1.594;2022-11-20T08:25:50;100710.84;;;12.53;100.00
46211;BME280;52144;48.040;-1.594;2022-11-20T08:28:18;100727.78;;;12.36;100.00
46211;BME280;52144;48.040;-1.594;2022-11-20T08:30:48;100732.91;;;12.23;100.00
46211;BME280;52144;48.040;-1.594;2022-11-20T08:33:18;100741.00;;;12.21;100.00
46211;BME280;52144;48.040;-1.594;2022-11-20T08:35:46;100739.16;;;12.39;100.00
46211;BME280;52144;48.040;-1.594;2022-11-20T08:38:14;100739.81;;;12.27;100.00
46211;BME280;52144;48.040;-1.594;2022-11-20T08:40:41;100731.44;;;12.51;100.00
46211;BME280;52144;48.040;-1.594;2022-11-20T08:43:30;100726.72;;;12.56;100.00
46211;BME280;52144;48.040;-1.594;2022-11-20T08:45:58;100729.63;;;12.84;100.00
46211;BME280;52144;48.040;-1.594;2022-11-20T08:48:27;100724.09;;;12.88;100.00
46211;BME280;52144;48.040;-1.594;2022-11-20T08:50:57;100728.41;;;12.74;100.00
46211;BME280;52144;48.040;-1.594;2022-11-20T08:53:25;100732.81;;;13.07;100.00
46211;BME280;52144;48.040;-1.594;2022-11-20T08:55:53;100747.31;;;13.03;100.00
46211;BME280;52144;48.040;-1.594;2022-11-20T08:58:21;100755.25;;;12.89;100.00
46211;BME280;52144;48.040;-1.594;2022-11-20T09:00:49;100764.97;;;12.90;100.00
46211;BME280;52144;48.040;-1.594;2022-11-20T09:03:17;100776.13;;;13.14;100.00
46211;BME280;52144;48.040;-1.594;2022-11-20T09:05:46;100778.81;;;13.14;100.00
46211;BME280;52144;48.040;-1.594;2022-11-20T09:08:14;100768.28;;;13.27;100.00
46211;BME280;52144;48.040;-1.594;2022-11-20T09:10:41;100766.38;;;12.97;100.00
46211;BME280;52144;48.040;-1.594;2022-11-20T09:13:10;100775.97;;;13.01;100.00
46211;BME280;52144;48.040;-1.594;2022-11-20T09:15:40;100776.38;;;12.93;100.00
46211;BME280;52144;48.040;-1.594;2022-11-20T09:18:08;100788.78;;;12.78;100.00
46211;BME280;52144;48.040;-1.594;2022-11-20T09:20:36;100803.78;;;12.81;100.00
46211;BME280;52144;48.040;-1.594;2022-11-20T09:23:06;100811.72;;;12.82;100.00
46211;BME280;52144;48.040;-1.594;2022-11-20T09:25:33;100804.47;;;12.51;100.00
46211;BME280;52144;48.040;-1.594;2022-11-20T09:28:01;100829.03;;;12.75;100.00
46211;BME280;52144;48.040;-1.594;2022-11-20T09:30:29;100833.09;;;13.16;100.00
46211;BME280;52144;48.040;-1.594;2022-11-20T09:32:57;100839.03;;;13.05;100.00
46211;BME280;52144;48.040;-1.594;2022-11-20T09:35:25;100850.41;;;12.93;100.00
46211;BME280;52144;48.040;-1.594;2022-11-20T09:37:52;100852.69;;;13.16;100.00
46211;BME280;52144;48.040;-1.594;2022-11-20T09:40:24;100848.34;;;13.31;100.00
46211;BME280;52144;48.040;-1.594;2022-11-20T09:42:56;100842.22;;;13.29;100.00
46211;BME280;52144;48.040;-1.594;2022-11-20T09:45:37;100853.47;;;13.18;100.00
46211;BME280;52144;48.040;-1.594;2022-11-20T09:48:20;100856.63;;;12.93;100.00
46211;BME280;52144;48.040;-1.594;2022-11-20T09:50:56;100860.72;;;13.50;100.00
46211;BME280;52144;48.040;-1.594;2022-11-20T09:53:32;100864.94;;;13.20;100.00
46211;BME280;52144;48.040;-1.594;2022-11-20T09:56:04;100854.31;;;13.36;100.00
46211;BME280;52144;48.040;-1.594;2022-11-20T09:58:35;100864.16;;;13.68;100.00
46211;BME280;52144;48.040;-1.594;2022-11-20T10:01:11;100861.91;;;13.44;100.00
46211;BME280;52144;48.040;-1.594;2022-11-20T10:03:48;100855.88;;;13.56;100.00
46211;BME280;52144;48.040;-1.594;2022-11-20T10:06:22;100870.91;;;13.59;100.00
46211;BME280;52144;48.040;-1.594;2022-11-20T10:08:56;100876.59;;;13.84;100.00
46211;BME280;52144;48.040;-1.594;2022-11-20T10:11:34;100875.91;;;13.65;100.00
46211;BME280;52144;48.040;-1.594;2022-11-20T10:14:16;100880.41;;;13.64;100.00
46211;BME280;52144;48.040;-1.594;2022-11-20T10:16:53;100881.34;;;13.79;100.00
46211;BME280;52144;48.040;-1.594;2022-11-20T10:19:35;100883.66;;;13.70;100.00
46211;BME280;52144;48.040;-1.594;2022-11-20T10:22:20;100882.75;;;13.21;100.00
46211;BME280;52144;48.040;-1.594;2022-11-20T10:24:55;100885.41;;;13.71;100.00
46211;BME280;52144;48.040;-1.594;2022-11-20T10:27:37;100893.38;;;13.88;100.00
46211;BME280;52144;48.040;-1.594;2022-11-20T10:30:10;100896.28;;;13.68;100.00
46211;BME280;52144;48.040;-1.594;2022-11-20T10:32:40;100904.31;;;13.99;99.85
46211;BME280;52144;48.040;-1.594;2022-11-20T10:35:18;100904.59;;;14.11;99.27
46211;BME280;52144;48.040;-1.594;2022-11-20T10:37:50;100906.72;;;14.20;98.29
46211;BME280;52144;48.040;-1.594;2022-11-20T10:40:25;100900.78;;;13.99;98.24
46211;BME280;52144;48.040;-1.594;2022-11-20T10:42:59;100910.78;;;14.27;97.31
46211;BME280;52144;48.040;-1.594;2022-11-20T10:45:38;100908.66;;;14.48;96.75
46211;BME280;52144;48.040;-1.594;2022-11-20T10:48:12;100904.25;;;14.47;94.48
46211;BME280;52144;48.040;-1.594;2022-11-20T10:50:53;100888.09;;;14.33;96.77
46211;BME280;52144;48.040;-1.594;2022-11-20T10:53:35;100883.31;;;14.08;97.87
46211;BME280;52144;48.040;-1.594;2022-11-20T10:56:08;100886.78;;;14.40;96.90
46211;BME280;52144;48.040;-1.594;2022-11-20T10:58:41;100893.03;;;14.55;94.60
46211;BME280;52144;48.040;-1.594;2022-11-20T11:01:14;100893.56;;;14.31;96.12
46211;BME280;52144;48.040;-1.594;2022-11-20T11:03:43;100898.03;;;14.00;97.07
46211;BME280;52144;48.040;-1.594;2022-11-20T11:06:17;100906.50;;;13.77;96.66
46211;BME280;52144;48.040;-1.594;2022-11-20T11:08:50;100914.09;;;14.00;95.12
46211;BME280;52144;48.040;-1.594;2022-11-20T11:11:22;100916.34;;;13.76;96.15
46211;BME280;52144;48.040;-1.594;2022-11-20T11:13:52;100904.25;;;13.69;96.47
46211;BME280;52144;48.040;-1.594;2022-11-20T11:16:21;100913.22;;;14.00;96.17
46211;BME280;52144;48.040;-1.594;2022-11-20T11:18:50;100917.00;;;14.12;95.00
46211;BME280;52144;48.040;-1.594;2022-11-20T11:21:23;100907.47;;;14.38;94.21
46211;BME280;52144;48.040;-1.594;2022-11-20T11:23:59;100913.41;;;14.43;93.85
46211;BME280;52144;48.040;-1.594;2022-11-20T11:26:52;100909.72;;;14.30;92.91
46211;BME280;52144;48.040;-1.594;2022-11-20T11:29:24;100900.59;;;14.64;93.19
46211;BME280;52144;48.040;-1.594;2022-11-20T11:32:03;100902.91;;;14.54;92.27
46211;BME280;52144;48.040;-1.594;2022-11-20T11:34:32;100903.44;;;14.61;92.62
46211;BME280;52144;48.040;-1.594;2022-11-20T11:37:00;100899.47;;;14.52;90.14
46211;BME280;52144;48.040;-1.594;2022-11-20T11:39:31;100896.75;;;14.68;89.34
46211;BME280;52144;48.040;-1.594;2022-11-20T11:42:00;100886.59;;;14.73;88.91
46211;BME280;52144;48.040;-1.594;2022-11-20T11:44:33;100891.00;;;14.60;89.94
46211;BME280;52144;48.040;-1.594;2022-11-20T11:47:23;100893.66;;;14.14;89.63
46211;BME280;52144;48.040;-1.594;2022-11-20T11:50:02;100875.00;;;14.58;89.33
46211;BME280;52144;48.040;-1.594;2022-11-20T11:52:31;100873.97;;;14.15;89.37
46211;BME280;52144;48.040;-1.594;2022-11-20T11:55:03;100877.84;;;14.55;88.38
46211;BME280;52144;48.040;-1.594;2022-11-20T11:57:41;100870.97;;;14.35;88.56
46211;BME280;52144;48.040;-1.594;2022-11-20T12:00:15;100876.75;;;14.59;88.49
46211;BME280;52144;48.040;-1.594;2022-11-20T12:02:52;100886.72;;;14.41;87.66
46211;BME280;52144;48.040;-1.594;2022-11-20T12:05:23;100886.44;;;14.76;86.98
46211;BME280;52144;48.040;-1.594;2022-11-20T12:07:55;100884.31;;;14.81;86.08
46211;BME280;52144;48.040;-1.594;2022-11-20T12:10:38;100888.81;;;14.67;86.50
46211;BME280;52144;48.040;-1.594;2022-11-20T12:13:18;100895.38;;;15.05;84.00
46211;BME280;52144;48.040;-1.594;2022-11-20T12:15:49;100906.41;;;15.15;83.60
46211;BME280;52144;48.040;-1.594;2022-11-20T12:18:18;100912.09;;;14.66;84.41
46211;BME280;52144;48.040;-1.594;2022-11-20T12:20:56;100906.56;;;14.83;83.35
46211;BME280;52144;48.040;-1.594;2022-11-20T12:23:30;100911.63;;;14.74;84.39
46211;BME280;52144;48.040;-1.594;2022-11-20T12:26:14;100901.97;;;14.85;84.16
46211;BME280;52144;48.040;-1.594;2022-11-20T12:28:56;100905.81;;;14.96;83.97
46211;BME280;52144;48.040;-1.594;2022-11-20T12:31:38;100899.97;;;15.03;82.54
46211;BME280;52144;48.040;-1.594;2022-11-20T12:34:24;100904.88;;;14.97;81.65
46211;BME280;52144;48.040;-1.594;2022-11-20T12:37:04;100914.13;;;14.77;82.59
46211;BME280;52144;48.040;-1.594;2022-11-20T12:39:34;100907.19;;;15.17;82.32
46211;BME280;52144;48.040;-1.594;2022-11-20T12:42:17;100911.00;;;14.99;82.28
46211;BME280;52144;48.040;-1.594;2022-11-20T12:48:24;100914.47;;;15.44;78.93
46211;BME280;52144;48.040;-1.594;2022-11-20T12:51:12;100910.84;;;15.16;80.01
46211;BME280;52144;48.040;-1.594;2022-11-20T12:53:54;100918.31;;;14.67;82.21
46211;BME280;52144;48.040;-1.594;2022-11-20T12:56:33;100917.91;;;15.03;81.17